sensor_id;sensor_type;location;lat;lon;timestamp;temperature;humidity
19110;DHT22;9687;50.836;12.060;2022-10-17T01:27:40;19.50;91.70
19110;DHT22;9687;50.836;12.060;2022-10-17T01:30:31;19.50;92.10
19110;DHT22;9687;50.836;12.060;2022-10-17T01:33:09;19.40;92.30
19110;DHT22;9687;50.836;12.060;2022-10-17T01:35:42;19.40;92.50
19110;DHT22;9687;50.836;12.060;2022-10-17T01:38:18;19.40;92.70
19110;DHT22;9687;50.836;12.060;2022-10-17T01:40:51;19.40;92.90
19110;DHT22;9687;50.836;12.060;2022-10-17T01:43:24;19.30;92.90
19110;DHT22;9687;50.836;12.060;2022-10-17T01:45:57;19.30;93.00
19110;DHT22;9687;50.836;12.060;2022-10-17T01:48:33;19.30;92.90
19110;DHT22;9687;50.836;12.060;2022-10-17T01:51:06;19.30;92.70
19110;DHT22;9687;50.836;12.060;2022-10-17T01:53:38;19.30;92.50
19110;DHT22;9687;50.836;12.060;2022-10-17T01:56:09;19.20;92.40
19110;DHT22;9687;50.836;12.060;2022-10-17T01:58:42;19.20;92.40
19110;DHT22;9687;50.836;12.060;2022-10-17T02:01:12;19.20;92.10
19110;DHT22;9687;50.836;12.060;2022-10-17T02:03:43;19.20;92.40
19110;DHT22;9687;50.836;12.060;2022-10-17T02:06:11;19.20;92.40
19110;DHT22;9687;50.836;12.060;2022-10-17T02:08:43;19.20;92.30
19110;DHT22;9687;50.836;12.060;2022-10-17T02:11:14;19.20;92.20
19110;DHT22;9687;50.836;12.060;2022-10-17T02:13:59;19.10;92.20
19110;DHT22;9687;50.836;12.060;2022-10-17T02:16:34;19.00;92.40
19110;DHT22;9687;50.836;12.060;2022-10-17T02:19:29;18.90;92.40
19110;DHT22;9687;50.836;12.060;2022-10-17T02:22:11;18.80;92.30
19110;DHT22;9687;50.836;12.060;2022-10-17T02:24:46;18.80;92.60
19110;DHT22;9687;50.836;12.060;2022-10-17T02:27:23;18.80;92.80
19110;DHT22;9687;50.836;12.060;2022-10-17T02:29:57;18.70;93.30
19110;DHT22;9687;50.836;12.060;2022-10-17T02:32:33;18.70;92.90
19110;DHT22;9687;50.836;12.060;2022-10-17T02:35:07;18.70;93.20
19110;DHT22;9687;50.836;12.060;2022-10-17T02:37:36;18.60;93.10
19110;DHT22;9687;50.836;12.060;2022-10-17T02:40:06;18.60;93.40
19110;DHT22;9687;50.836;12.060;2022-10-17T02:42:35;18.50;93.70
19110;DHT22;9687;50.836;12.060;2022-10-17T02:45:05;18.50;93.80
19110;DHT22;9687;50.836;12.060;2022-10-17T02:47:36;18.50;94.00
19110;DHT22;9687;50.836;12.060;2022-10-17T02:50:08;18.50;94.10
19110;DHT22;9687;50.836;12.060;2022-10-17T02:52:38;18.50;94.20
19110;DHT22;9687;50.836;12.060;2022-10-17T02:55:12;18.50;94.40
19110;DHT22;9687;50.836;12.060;2022-10-17T02:57:43;18.50;94.40
19110;DHT22;9687;50.836;12.060;2022-10-17T03:00:13;18.50;94.40
19110;DHT22;9687;50.836;12.060;2022-10-17T03:02:43;18.50;94.20
19110;DHT22;9687;50.836;12.060;2022-10-17T03:05:14;18.50;94.20
19110;DHT22;9687;50.836;12.060;2022-10-17T03:07:42;18.60;94.10
19110;DHT22;9687;50.836;12.060;2022-10-17T03:10:10;18.70;93.90
19110;DHT22;9687;50.836;12.060;2022-10-17T03:12:37;18.60;93.20
19110;DHT22;9687;50.836;12.060;2022-10-17T03:15:06;18.60;93.40
19110;DHT22;9687;50.836;12.060;2022-10-17T03:17:34;18.70;93.40
19110;DHT22;9687;50.836;12.060;2022-10-17T03:20:02;18.70;93.20
19110;DHT22;9687;50.836;12.060;2022-10-17T03:22:30;18.70;93.10
19110;DHT22;9687;50.836;12.060;2022-10-17T03:24:58;18.70;92.90
19110;DHT22;9687;50.836;12.060;2022-10-17T03:27:25;18.80;92.80
19110;DHT22;9687;50.836;12.060;2022-10-17T03:29:53;18.70;92.60
19110;DHT22;9687;50.836;12.060;2022-10-17T03:32:20;18.80;92.60
19110;DHT22;9687;50.836;12.060;2022-10-17T03:34:48;18.80;92.60
19110;DHT22;9687;50.836;12.060;2022-10-17T03:37:15;18.70;92.60
19110;DHT22;9687;50.836;12.060;2022-10-17T03:39:44;18.80;92.60
19110;DHT22;9687;50.836;12.060;2022-10-17T03:42:11;18.80;92.60
19110;DHT22;9687;50.836;12.060;2022-10-17T03:44:39;18.90;92.70
19110;DHT22;9687;50.836;12.060;2022-10-17T03:47:06;18.90;92.70
19110;DHT22;9687;50.836;12.060;2022-10-17T03:49:33;19.00;92.70
19110;DHT22;9687;50.836;12.060;2022-10-17T03:52:01;18.90;92.70
19110;DHT22;9687;50.836;12.060;2022-10-17T03:54:28;18.90;92.50
19110;DHT22;9687;50.836;12.060;2022-10-17T03:56:57;18.90;92.40
19110;DHT22;9687;50.836;12.060;2022-10-17T03:59:25;18.80;92.40
19110;DHT22;9687;50.836;12.060;2022-10-17T04:01:52;18.90;92.10
19110;DHT22;9687;50.836;12.060;2022-10-17T04:04:19;18.90;92.40
19110;DHT22;9687;50.836;12.060;2022-10-17T04:06:47;18.90;92.00
19110;DHT22;9687;50.836;12.060;2022-10-17T04:11:42;18.90;91.90
19110;DHT22;9687;50.836;12.060;2022-10-17T04:14:11;18.90;92.20
19110;DHT22;9687;50.836;12.060;2022-10-17T04:16:39;19.00;92.20
19110;DHT22;9687;50.836;12.060;2022-10-17T04:19:11;19.00;92.20
19110;DHT22;9687;50.836;12.060;2022-10-17T04:21:39;19.00;92.10
19110;DHT22;9687;50.836;12.060;2022-10-17T04:24:09;19.00;92.10
19110;DHT22;9687;50.836;12.060;2022-10-17T04:26:37;19.10;92.00
19110;DHT22;9687;50.836;12.060;2022-10-17T07:30:53;20.50;89.00
19110;DHT22;9687;50.836;12.060;2022-10-17T07:33:20;20.50;88.60
19110;DHT22;9687;50.836;12.060;2022-10-17T07:35:48;20.50;88.60
19110;DHT22;9687;50.836;12.060;2022-10-17T07:38:17;20.50;88.50
19110;DHT22;9687;50.836;12.060;2022-10-17T07:40:45;20.60;88.60
19110;DHT22;9687;50.836;12.060;2022-10-17T07:43:12;20.60;88.60
19110;DHT22;9687;50.836;12.060;2022-10-17T07:45:40;20.70;88.70
19110;DHT22;9687;50.836;12.060;2022-10-17T07:48:09;20.80;88.60
19110;DHT22;9687;50.836;12.060;2022-10-17T07:50:36;20.90;88.20
19110;DHT22;9687;50.836;12.060;2022-10-17T07:53:04;21.00;87.70
19110;DHT22;9687;50.836;12.060;2022-10-17T07:55:31;21.10;87.80
19110;DHT22;9687;50.836;12.060;2022-10-17T07:57:58;21.20;87.70
19110;DHT22;9687;50.836;12.060;2022-10-17T08:00:26;21.30;87.50
19110;DHT22;9687;50.836;12.060;2022-10-17T08:02:54;21.40;87.50
19110;DHT22;9687;50.836;12.060;2022-10-17T08:05:22;21.50;87.70
19110;DHT22;9687;50.836;12.060;2022-10-17T08:07:53;21.70;86.70
19110;DHT22;9687;50.836;12.060;2022-10-17T08:10:21;21.90;86.50
19110;DHT22;9687;50.836;12.060;2022-10-17T08:12:52;22.10;84.90
19110;DHT22;9687;50.836;12.060;2022-10-17T08:15:20;22.20;84.50
19110;DHT22;9687;50.836;12.060;2022-10-17T08:17:49;22.40;83.80
19110;DHT22;9687;50.836;12.060;2022-10-17T08:20:18;22.60;83.10
19110;DHT22;9687;50.836;12.060;2022-10-17T08:22:51;22.70;82.00
19110;DHT22;9687;50.836;12.060;2022-10-17T08:25:19;22.90;82.10
19110;DHT22;9687;50.836;12.060;2022-10-17T08:27:47;23.10;81.90
19110;DHT22;9687;50.836;12.060;2022-10-17T08:30:15;23.30;80.80
19110;DHT22;9687;50.836;12.060;2022-10-17T08:32:42;23.50;80.70
19110;DHT22;9687;50.836;12.060;2022-10-17T08:35:10;23.70;79.40
19110;DHT22;9687;50.836;12.060;2022-10-17T08:37:39;23.90;79.10
19110;DHT22;9687;50.836;12.060;2022-10-17T08:40:10;24.00;78.00
19110;DHT22;9687;50.836;12.060;2022-10-17T08:42:50;24.10;77.60
19110;DHT22;9687;50.836;12.060;2022-10-17T08:45:25;24.20;77.10
19110;DHT22;9687;50.836;12.060;2022-10-17T08:47:58;24.40;77.10
19110;DHT22;9687;50.836;12.060;2022-10-17T08:50:30;24.50;76.90
19110;DHT22;9687;50.836;12.060;2022-10-17T08:53:04;24.70;76.40
19110;DHT22;9687;50.836;12.060;2022-10-17T08:55:40;24.80;76.50
19110;DHT22;9687;50.836;12.060;2022-10-17T08:58:12;25.00;76.20
19110;DHT22;9687;50.836;12.060;2022-10-17T09:00:45;25.20;75.10
19110;DHT22;9687;50.836;12.060;2022-10-17T09:03:23;25.30;74.30
19110;DHT22;9687;50.836;12.060;2022-10-17T09:06:04;25.50;73.00
19110;DHT22;9687;50.836;12.060;2022-10-17T09:08:38;25.70;71.70
19110;DHT22;9687;50.836;12.060;2022-10-17T09:11:18;25.70;70.80
19110;DHT22;9687;50.836;12.060;2022-10-17T09:13:58;25.90;70.20
19110;DHT22;9687;50.836;12.060;2022-10-17T09:16:42;26.00;70.10
19110;DHT22;9687;50.836;12.060;2022-10-17T09:19:18;26.20;69.20
19110;DHT22;9687;50.836;12.060;2022-10-17T09:21:51;26.40;69.30
19110;DHT22;9687;50.836;12.060;2022-10-17T09:24:23;26.50;68.50
19110;DHT22;9687;50.836;12.060;2022-10-17T09:26:54;26.60;67.30
19110;DHT22;9687;50.836;12.060;2022-10-17T09:29:23;26.80;67.20
19110;DHT22;9687;50.836;12.060;2022-10-17T09:31:56;26.90;66.20
19110;DHT22;9687;50.836;12.060;2022-10-17T09:34:27;27.00;65.50
19110;DHT22;9687;50.836;12.060;2022-10-17T09:36:57;27.10;65.00
19110;DHT22;9687;50.836;12.060;2022-10-17T09:39:26;27.20;64.70
19110;DHT22;9687;50.836;12.060;2022-10-17T09:41:59;27.30;64.90
19110;DHT22;9687;50.836;12.060;2022-10-17T09:44:30;27.40;64.50
19110;DHT22;9687;50.836;12.060;2022-10-17T09:47:21;27.50;64.50
19110;DHT22;9687;50.836;12.060;2022-10-17T09:49:50;27.60;64.10
19110;DHT22;9687;50.836;12.060;2022-10-17T09:52:20;27.80;64.00
19110;DHT22;9687;50.836;12.060;2022-10-17T09:54:50;27.80;63.80
19110;DHT22;9687;50.836;12.060;2022-10-17T09:57:20;28.00;63.70
19110;DHT22;9687;50.836;12.060;2022-10-17T09:59:56;28.20;62.60
19110;DHT22;9687;50.836;12.060;2022-10-17T10:02:26;28.30;61.60
19110;DHT22;9687;50.836;12.060;2022-10-17T10:04:59;28.40;61.50
19110;DHT22;9687;50.836;12.060;2022-10-17T10:07:29;28.40;60.70
19110;DHT22;9687;50.836;12.060;2022-10-17T10:09:58;28.50;60.70
19110;DHT22;9687;50.836;12.060;2022-10-17T10:12:31;28.70;60.10
19110;DHT22;9687;50.836;12.060;2022-10-17T10:14:59;28.70;59.70
19110;DHT22;9687;50.836;12.060;2022-10-17T12:42:47;29.80;50.70
19110;DHT22;9687;50.836;12.060;2022-10-17T12:45:47;29.80;51.40
19110;DHT22;9687;50.836;12.060;2022-10-17T12:51:21;29.60;52.00
19110;DHT22;9687;50.836;12.060;2022-10-17T12:53:56;29.60;52.20
19110;DHT22;9687;50.836;12.060;2022-10-17T12:56:33;29.50;52.50
19110;DHT22;9687;50.836;12.060;2022-10-17T12:59:10;29.50;52.90
19110;DHT22;9687;50.836;12.060;2022-10-17T13:01:44;29.50;52.90
19110;DHT22;9687;50.836;12.060;2022-10-17T13:04:13;29.50;52.80
19110;DHT22;9687;50.836;12.060;2022-10-17T13:06:45;29.40;52.90
19110;DHT22;9687;50.836;12.060;2022-10-17T13:09:24;29.40;52.90
19110;DHT22;9687;50.836;12.060;2022-10-17T13:11:53;29.40;53.00
19110;DHT22;9687;50.836;12.060;2022-10-17T13:14:29;29.30;53.20
19110;DHT22;9687;50.836;12.060;2022-10-17T13:17:01;29.30;53.70
19110;DHT22;9687;50.836;12.060;2022-10-17T13:19:38;29.20;54.00
19110;DHT22;9687;50.836;12.060;2022-10-17T13:22:18;29.20;54.20
19110;DHT22;9687;50.836;12.060;2022-10-17T13:24:47;29.20;54.50
19110;DHT22;9687;50.836;12.060;2022-10-17T13:27:23;29.20;54.30
19110;DHT22;9687;50.836;12.060;2022-10-17T13:29:53;29.10;54.20
19110;DHT22;9687;50.836;12.060;2022-10-17T13:32:23;29.10;54.30
19110;DHT22;9687;50.836;12.060;2022-10-17T13:35:06;29.00;54.70
19110;DHT22;9687;50.836;12.060;2022-10-17T13:37:35;29.00;55.00
19110;DHT22;9687;50.836;12.060;2022-10-17T14:45:33;28.70;56.10
19110;DHT22;9687;50.836;12.060;2022-10-17T14:48:05;28.60;56.10
19110;DHT22;9687;50.836;12.060;2022-10-17T14:50:33;28.60;56.30
19110;DHT22;9687;50.836;12.060;2022-10-17T14:53:04;28.60;56.20
19110;DHT22;9687;50.836;12.060;2022-10-17T14:55:33;28.50;56.10
19110;DHT22;9687;50.836;12.060;2022-10-17T14:58:13;28.50;56.10
19110;DHT22;9687;50.836;12.060;2022-10-17T15:00:43;28.50;56.10
19110;DHT22;9687;50.836;12.060;2022-10-17T15:03:10;28.50;56.10
19110;DHT22;9687;50.836;12.060;2022-10-17T15:05:38;28.50;56.20
19110;DHT22;9687;50.836;12.060;2022-10-17T15:08:11;28.50;56.20
19110;DHT22;9687;50.836;12.060;2022-10-17T15:10:39;28.50;55.90
19110;DHT22;9687;50.836;12.060;2022-10-17T15:13:10;28.50;55.90
19110;DHT22;9687;50.836;12.060;2022-10-17T15:15:44;28.40;55.70
19110;DHT22;9687;50.836;12.060;2022-10-17T15:18:16;28.40;55.60
19110;DHT22;9687;50.836;12.060;2022-10-17T15:20:43;28.40;55.60
19110;DHT22;9687;50.836;12.060;2022-10-17T15:23:11;28.40;56.20
19110;DHT22;9687;50.836;12.060;2022-10-17T15:25:38;28.40;55.40
19110;DHT22;9687;50.836;12.060;2022-10-17T15:28:06;28.30;55.30
19110;DHT22;9687;50.836;12.060;2022-10-17T15:30:35;28.30;55.20
19110;DHT22;9687;50.836;12.060;2022-10-17T15:33:07;28.30;55.10
19110;DHT22;9687;50.836;12.060;2022-10-17T15:35:35;28.20;54.90
19110;DHT22;9687;50.836;12.060;2022-10-17T15:38:05;28.20;55.20
19110;DHT22;9687;50.836;12.060;2022-10-17T15:40:32;28.20;55.70
19110;DHT22;9687;50.836;12.060;2022-10-17T15:43:00;28.20;56.00
19110;DHT22;9687;50.836;12.060;2022-10-17T15:45:28;28.10;56.10
19110;DHT22;9687;50.836;12.060;2022-10-17T15:47:57;28.10;56.10
19110;DHT22;9687;50.836;12.060;2022-10-17T15:50:27;28.00;55.70
19110;DHT22;9687;50.836;12.060;2022-10-17T15:52:55;28.00;55.50
19110;DHT22;9687;50.836;12.060;2022-10-17T15:55:23;27.90;55.30
19110;DHT22;9687;50.836;12.060;2022-10-17T15:57:51;27.90;55.30
19110;DHT22;9687;50.836;12.060;2022-10-17T16:00:22;27.90;55.20
19110;DHT22;9687;50.836;12.060;2022-10-17T16:02:50;27.90;55.20
19110;DHT22;9687;50.836;12.060;2022-10-17T16:05:20;27.80;55.10
19110;DHT22;9687;50.836;12.060;2022-10-17T16:07:50;27.80;55.10
19110;DHT22;9687;50.836;12.060;2022-10-17T16:10:18;27.70;55.10
19110;DHT22;9687;50.836;12.060;2022-10-17T16:12:46;27.70;55.20
19110;DHT22;9687;50.836;12.060;2022-10-17T16:15:16;27.70;55.50
19110;DHT22;9687;50.836;12.060;2022-10-17T16:17:44;27.60;55.20
19110;DHT22;9687;50.836;12.060;2022-10-17T16:20:12;27.60;55.30
19110;DHT22;9687;50.836;12.060;2022-10-17T16:22:41;27.60;55.50
19110;DHT22;9687;50.836;12.060;2022-10-17T16:25:16;27.60;55.50
19110;DHT22;9687;50.836;12.060;2022-10-17T16:27:45;27.50;55.40
19110;DHT22;9687;50.836;12.060;2022-10-17T16:30:13;27.50;55.60
19110;DHT22;9687;50.836;12.060;2022-10-17T16:32:41;27.40;55.80
19110;DHT22;9687;50.836;12.060;2022-10-17T16:35:11;27.40;56.10
19110;DHT22;9687;50.836;12.060;2022-10-17T16:37:40;27.30;55.90
19110;DHT22;9687;50.836;12.060;2022-10-17T16:40:09;27.30;56.50
19110;DHT22;9687;50.836;12.060;2022-10-17T16:42:38;27.30;56.70
19110;DHT22;9687;50.836;12.060;2022-10-17T16:45:06;27.20;56.80
19110;DHT22;9687;50.836;12.060;2022-10-17T16:47:34;27.10;56.60
19110;DHT22;9687;50.836;12.060;2022-10-17T16:50:02;27.10;56.80
19110;DHT22;9687;50.836;12.060;2022-10-17T16:52:29;27.00;57.00
19110;DHT22;9687;50.836;12.060;2022-10-17T16:54:56;27.00;57.20
19110;DHT22;9687;50.836;12.060;2022-10-17T16:57:24;26.90;57.40
19110;DHT22;9687;50.836;12.060;2022-10-17T16:59:53;26.80;57.60
19110;DHT22;9687;50.836;12.060;2022-10-17T17:02:20;26.80;57.80
19110;DHT22;9687;50.836;12.060;2022-10-17T17:04:48;26.70;57.90
19110;DHT22;9687;50.836;12.060;2022-10-17T17:07:16;26.60;58.10
19110;DHT22;9687;50.836;12.060;2022-10-17T17:09:45;26.60;58.20
19110;DHT22;9687;50.836;12.060;2022-10-17T17:12:12;26.50;58.40
19110;DHT22;9687;50.836;12.060;2022-10-17T17:14:40;26.40;58.60
19110;DHT22;9687;50.836;12.060;2022-10-17T17:17:08;26.40;58.90
19110;DHT22;9687;50.836;12.060;2022-10-17T17:19:36;26.30;59.00
19110;DHT22;9687;50.836;12.060;2022-10-17T17:22:04;26.30;59.20
19110;DHT22;9687;50.836;12.060;2022-10-17T17:24:31;26.30;59.30
19110;DHT22;9687;50.836;12.060;2022-10-17T17:26:59;26.20;59.30
19110;DHT22;9687;50.836;12.060;2022-10-17T17:29:26;26.20;59.50
19110;DHT22;9687;50.836;12.060;2022-10-17T17:31:54;26.20;59.50
19110;DHT22;9687;50.836;12.060;2022-10-17T17:34:23;26.10;59.90
19110;DHT22;9687;50.836;12.060;2022-10-17T17:36:50;26.10;60.30
19110;DHT22;9687;50.836;12.060;2022-10-17T17:39:17;26.10;60.20
19110;DHT22;9687;50.836;12.060;2022-10-17T17:41:45;26.10;60.40
19110;DHT22;9687;50.836;12.060;2022-10-17T17:44:13;26.00;60.60
19110;DHT22;9687;50.836;12.060;2022-10-17T17:46:41;26.00;60.80
19110;DHT22;9687;50.836;12.060;2022-10-17T17:49:09;26.00;60.90
19110;DHT22;9687;50.836;12.060;2022-10-17T17:51:38;26.00;60.90
19110;DHT22;9687;50.836;12.060;2022-10-17T17:54:07;26.00;61.00
19110;DHT22;9687;50.836;12.060;2022-10-17T17:56:36;26.00;61.00
19110;DHT22;9687;50.836;12.060;2022-10-17T17:59:04;25.90;61.10
19110;DHT22;9687;50.836;12.060;2022-10-17T18:01:33;25.90;61.20
19110;DHT22;9687;50.836;12.060;2022-10-17T18:04:04;25.80;61.30
19110;DHT22;9687;50.836;12.060;2022-10-17T18:06:32;25.70;61.70
19110;DHT22;9687;50.836;12.060;2022-10-17T18:09:01;25.70;61.70
19110;DHT22;9687;50.836;12.060;2022-10-17T18:11:29;25.60;62.00
19110;DHT22;9687;50.836;12.060;2022-10-17T18:13:58;25.50;62.10
19110;DHT22;9687;50.836;12.060;2022-10-17T18:16:28;25.50;62.40
19110;DHT22;9687;50.836;12.060;2022-10-17T18:18:56;25.50;62.80
19110;DHT22;9687;50.836;12.060;2022-10-17T18:21:23;25.40;62.70
19110;DHT22;9687;50.836;12.060;2022-10-17T18:23:51;25.40;62.70
19110;DHT22;9687;50.836;12.060;2022-10-17T18:26:21;25.40;63.10
19110;DHT22;9687;50.836;12.060;2022-10-17T18:28:48;25.30;63.10
19110;DHT22;9687;50.836;12.060;2022-10-17T18:31:18;25.30;63.20
19110;DHT22;9687;50.836;12.060;2022-10-17T18:33:50;25.30;63.40
19110;DHT22;9687;50.836;12.060;2022-10-17T18:36:19;25.30;63.60
19110;DHT22;9687;50.836;12.060;2022-10-17T18:38:48;25.20;63.90
19110;DHT22;9687;50.836;12.060;2022-10-17T18:41:17;25.10;64.70
19110;DHT22;9687;50.836;12.060;2022-10-17T18:43:47;25.10;64.10
19110;DHT22;9687;50.836;12.060;2022-10-17T18:46:15;25.10;64.30
19110;DHT22;9687;50.836;12.060;2022-10-17T18:48:44;25.00;64.50
19110;DHT22;9687;50.836;12.060;2022-10-17T18:51:14;25.00;64.70
19110;DHT22;9687;50.836;12.060;2022-10-17T18:53:43;25.00;65.00
19110;DHT22;9687;50.836;12.060;2022-10-17T18:56:12;24.90;65.20
19110;DHT22;9687;50.836;12.060;2022-10-17T18:58:42;24.90;65.40
19110;DHT22;9687;50.836;12.060;2022-10-17T19:01:15;24.90;65.60
19110;DHT22;9687;50.836;12.060;2022-10-17T19:03:45;24.80;65.70
19110;DHT22;9687;50.836;12.060;2022-10-17T19:06:15;24.80;66.00
19110;DHT22;9687;50.836;12.060;2022-10-17T19:08:44;24.80;66.30
19110;DHT22;9687;50.836;12.060;2022-10-17T19:11:14;24.70;66.40
19110;DHT22;9687;50.836;12.060;2022-10-17T19:13:43;24.70;66.60
19110;DHT22;9687;50.836;12.060;2022-10-17T19:16:14;24.70;66.90
19110;DHT22;9687;50.836;12.060;2022-10-17T19:18:41;24.60;66.80
19110;DHT22;9687;50.836;12.060;2022-10-17T19:21:10;24.40;66.30
19110;DHT22;9687;50.836;12.060;2022-10-17T19:23:37;24.40;67.00
19110;DHT22;9687;50.836;12.060;2022-10-17T19:26:09;24.30;67.20
19110;DHT22;9687;50.836;12.060;2022-10-17T19:28:38;24.20;67.60
19110;DHT22;9687;50.836;12.060;2022-10-17T19:31:07;24.20;67.60
19110;DHT22;9687;50.836;12.060;2022-10-17T19:33:38;24.00;67.80
19110;DHT22;9687;50.836;12.060;2022-10-17T19:36:07;23.90;68.20
19110;DHT22;9687;50.836;12.060;2022-10-17T19:38:36;23.80;68.30
19110;DHT22;9687;50.836;12.060;2022-10-17T19:41:05;23.80;68.60
19110;DHT22;9687;50.836;12.060;2022-10-17T19:43:34;23.70;68.80
19110;DHT22;9687;50.836;12.060;2022-10-17T19:46:04;23.60;69.00
19110;DHT22;9687;50.836;12.060;2022-10-17T19:48:33;23.40;69.70
19110;DHT22;9687;50.836;12.060;2022-10-17T19:51:04;23.30;70.20
19110;DHT22;9687;50.836;12.060;2022-10-17T19:53:32;23.10;70.80
19110;DHT22;9687;50.836;12.060;2022-10-17T19:55:59;23.00;71.60
19110;DHT22;9687;50.836;12.060;2022-10-17T19:58:28;22.90;72.10
19110;DHT22;9687;50.836;12.060;2022-10-17T20:00:59;22.80;72.50
19110;DHT22;9687;50.836;12.060;2022-10-17T20:03:28;22.70;72.70
19110;DHT22;9687;50.836;12.060;2022-10-17T20:05:56;22.60;73.00
19110;DHT22;9687;50.836;12.060;2022-10-17T20:08:24;22.60;73.20
19110;DHT22;9687;50.836;12.060;2022-10-17T20:10:52;22.50;73.40
19110;DHT22;9687;50.836;12.060;2022-10-17T20:13:19;22.50;73.80
19110;DHT22;9687;50.836;12.060;2022-10-17T20:15:53;22.40;74.20
19110;DHT22;9687;50.836;12.060;2022-10-17T20:18:21;22.20;74.50
19110;DHT22;9687;50.836;12.060;2022-10-17T20:20:48;22.20;74.80
19110;DHT22;9687;50.836;12.060;2022-10-17T20:23:16;22.20;74.80
19110;DHT22;9687;50.836;12.060;2022-10-17T20:25:45;22.20;74.90
19110;DHT22;9687;50.836;12.060;2022-10-17T20:28:12;22.20;74.80
19110;DHT22;9687;50.836;12.060;2022-10-17T20:30:43;22.30;74.80
19110;DHT22;9687;50.836;12.060;2022-10-17T20:33:11;22.30;74.80
19110;DHT22;9687;50.836;12.060;2022-10-17T21:28:04;22.50;75.70
19110;DHT22;9687;50.836;12.060;2022-10-17T21:30:31;22.60;75.90
19110;DHT22;9687;50.836;12.060;2022-10-17T21:32:59;22.60;75.90
19110;DHT22;9687;50.836;12.060;2022-10-17T21:35:26;22.60;75.40
19110;DHT22;9687;50.836;12.060;2022-10-17T21:37:54;22.20;74.30
19110;DHT22;9687;50.836;12.060;2022-10-17T21:40:21;22.20;75.00
19110;DHT22;9687;50.836;12.060;2022-10-17T21:42:48;22.10;75.50
19110;DHT22;9687;50.836;12.060;2022-10-17T21:45:17;21.90;75.90
19110;DHT22;9687;50.836;12.060;2022-10-17T21:47:46;21.90;76.30
19110;DHT22;9687;50.836;12.060;2022-10-17T21:50:13;21.80;76.40
19110;DHT22;9687;50.836;12.060;2022-10-17T21:52:41;21.80;76.60
19110;DHT22;9687;50.836;12.060;2022-10-17T21:55:08;21.80;76.60
19110;DHT22;9687;50.836;12.060;2022-10-17T21:57:35;21.80;76.30
19110;DHT22;9687;50.836;12.060;2022-10-17T22:00:04;21.80;76.10
19110;DHT22;9687;50.836;12.060;2022-10-17T22:02:33;21.70;76.00
19110;DHT22;9687;50.836;12.060;2022-10-17T22:05:00;21.60;76.50
19110;DHT22;9687;50.836;12.060;2022-10-17T22:07:28;21.50;77.30
19110;DHT22;9687;50.836;12.060;2022-10-17T22:09:56;21.40;78.40
19110;DHT22;9687;50.836;12.060;2022-10-17T22:12:24;21.30;77.70
19110;DHT22;9687;50.836;12.060;2022-10-17T22:14:52;21.30;77.90
19110;DHT22;9687;50.836;12.060;2022-10-17T22:17:19;21.20;77.70
19110;DHT22;9687;50.836;12.060;2022-10-17T22:19:48;21.30;77.70
19110;DHT22;9687;50.836;12.060;2022-10-17T22:22:15;21.30;77.50
19110;DHT22;9687;50.836;12.060;2022-10-17T22:24:42;21.20;77.20
19110;DHT22;9687;50.836;12.060;2022-10-17T23:28:44;20.90;80.20
19110;DHT22;9687;50.836;12.060;2022-10-17T23:31:14;20.90;80.00
19110;DHT22;9687;50.836;12.060;2022-10-17T23:33:42;20.90;79.90
19110;DHT22;9687;50.836;12.060;2022-10-17T23:36:11;20.90;79.90
19110;DHT22;9687;50.836;12.060;2022-10-17T23:38:39;20.80;80.30
19110;DHT22;9687;50.836;12.060;2022-10-17T23:41:07;20.70;80.90
19110;DHT22;9687;50.836;12.060;2022-10-17T23:43:35;20.50;81.20
19110;DHT22;9687;50.836;12.060;2022-10-17T23:46:05;20.20;82.10
19110;DHT22;9687;50.836;12.060;2022-10-17T23:48:33;20.10;82.90
19110;DHT22;9687;50.836;12.060;2022-10-17T23:51:00;19.90;83.80
19110;DHT22;9687;50.836;12.060;2022-10-17T23:53:27;19.80;84.30
19110;DHT22;9687;50.836;12.060;2022-10-17T23:55:55;19.60;84.90
19110;DHT22;9687;50.836;12.060;2022-10-17T23:58:22;19.60;85.80
